sensor_id;sensor_type;location;lat;lon;timestamp;temperature;humidity
14735;DHT22;7458;49.002;8.472;2022-10-31T00:01:18;14.20;99.90
14735;DHT22;7458;49.002;8.472;2022-10-31T00:04:00;14.20;99.90
14735;DHT22;7458;49.002;8.472;2022-10-31T00:06:26;14.20;99.90
14735;DHT22;7458;49.002;8.472;2022-10-31T00:08:54;14.20;99.90
14735;DHT22;7458;49.002;8.472;2022-10-31T00:11:23;14.20;99.90
14735;DHT22;7458;49.002;8.472;2022-10-31T00:13:50;14.20;99.90
14735;DHT22;7458;49.002;8.472;2022-10-31T00:16:17;14.20;99.90
14735;DHT22;7458;49.002;8.472;2022-10-31T00:18:48;14.20;99.90
14735;DHT22;7458;49.002;8.472;2022-10-31T00:21:15;14.20;99.90
14735;DHT22;7458;49.002;8.472;2022-10-31T00:23:42;14.20;99.90
14735;DHT22;7458;49.002;8.472;2022-10-31T00:26:08;14.10;99.90
14735;DHT22;7458;49.002;8.472;2022-10-31T00:28:33;14.20;99.90
14735;DHT22;7458;49.002;8.472;2022-10-31T00:31:04;14.20;99.90
14735;DHT22;7458;49.002;8.472;2022-10-31T00:33:34;14.20;99.90
14735;DHT22;7458;49.002;8.472;2022-10-31T00:36:03;14.20;99.90
14735;DHT22;7458;49.002;8.472;2022-10-31T00:38:31;14.10;99.90
14735;DHT22;7458;49.002;8.472;2022-10-31T00:40:56;14.10;99.90
14735;DHT22;7458;49.002;8.472;2022-10-31T00:43:22;14.00;99.90
14735;DHT22;7458;49.002;8.472;2022-10-31T00:45:48;14.00;99.90
14735;DHT22;7458;49.002;8.472;2022-10-31T00:48:14;14.00;99.90
14735;DHT22;7458;49.002;8.472;2022-10-31T00:50:41;13.90;99.90
14735;DHT22;7458;49.002;8.472;2022-10-31T00:53:08;13.90;99.90
14735;DHT22;7458;49.002;8.472;2022-10-31T00:55:34;13.90;99.90
14735;DHT22;7458;49.002;8.472;2022-10-31T00:58:00;13.90;99.90
14735;DHT22;7458;49.002;8.472;2022-10-31T01:00:26;13.80;99.90
14735;DHT22;7458;49.002;8.472;2022-10-31T01:02:52;13.80;99.90
14735;DHT22;7458;49.002;8.472;2022-10-31T01:05:17;13.80;99.90
14735;DHT22;7458;49.002;8.472;2022-10-31T01:07:44;13.80;99.90
14735;DHT22;7458;49.002;8.472;2022-10-31T01:10:10;13.70;99.90
14735;DHT22;7458;49.002;8.472;2022-10-31T01:12:41;13.70;99.90
14735;DHT22;7458;49.002;8.472;2022-10-31T01:15:10;13.70;99.90
14735;DHT22;7458;49.002;8.472;2022-10-31T01:17:38;13.70;99.90
14735;DHT22;7458;49.002;8.472;2022-10-31T01:20:05;13.70;99.90
14735;DHT22;7458;49.002;8.472;2022-10-31T01:22:32;13.70;99.90
14735;DHT22;7458;49.002;8.472;2022-10-31T01:24:58;13.70;99.90
14735;DHT22;7458;49.002;8.472;2022-10-31T01:27:24;13.60;99.90
14735;DHT22;7458;49.002;8.472;2022-10-31T01:29:50;13.60;99.90
14735;DHT22;7458;49.002;8.472;2022-10-31T01:32:16;13.60;99.90
14735;DHT22;7458;49.002;8.472;2022-10-31T01:34:41;13.50;99.90
14735;DHT22;7458;49.002;8.472;2022-10-31T01:37:07;13.50;99.90
14735;DHT22;7458;49.002;8.472;2022-10-31T01:39:33;13.40;99.90
14735;DHT22;7458;49.002;8.472;2022-10-31T01:41:59;13.40;99.90
14735;DHT22;7458;49.002;8.472;2022-10-31T01:47:14;13.30;99.90
14735;DHT22;7458;49.002;8.472;2022-10-31T01:49:49;13.30;99.90
14735;DHT22;7458;49.002;8.472;2022-10-31T01:57:23;13.20;99.90
14735;DHT22;7458;49.002;8.472;2022-10-31T01:59:55;13.10;99.90
14735;DHT22;7458;49.002;8.472;2022-10-31T02:02:25;13.10;99.90
14735;DHT22;7458;49.002;8.472;2022-10-31T02:04:55;13.10;99.90
14735;DHT22;7458;49.002;8.472;2022-10-31T02:07:28;13.10;99.90
14735;DHT22;7458;49.002;8.472;2022-10-31T02:10:00;13.10;99.90
14735;DHT22;7458;49.002;8.472;2022-10-31T02:12:30;13.00;99.90
14735;DHT22;7458;49.002;8.472;2022-10-31T02:14:58;13.00;99.90
14735;DHT22;7458;49.002;8.472;2022-10-31T02:17:25;13.00;99.90
14735;DHT22;7458;49.002;8.472;2022-10-31T02:20:05;12.90;99.90
14735;DHT22;7458;49.002;8.472;2022-10-31T02:34:58;13.00;99.90
14735;DHT22;7458;49.002;8.472;2022-10-31T02:40:50;13.00;99.90
14735;DHT22;7458;49.002;8.472;2022-10-31T02:49:56;13.00;99.90
14735;DHT22;7458;49.002;8.472;2022-10-31T02:52:18;12.90;99.90
14735;DHT22;7458;49.002;8.472;2022-10-31T02:54:47;12.90;99.90
14735;DHT22;7458;49.002;8.472;2022-10-31T02:57:14;12.90;99.90
14735;DHT22;7458;49.002;8.472;2022-10-31T02:59:48;12.80;99.90
14735;DHT22;7458;49.002;8.472;2022-10-31T03:02:55;12.80;99.90
14735;DHT22;7458;49.002;8.472;2022-10-31T03:08:24;12.80;99.90
14735;DHT22;7458;49.002;8.472;2022-10-31T03:10:59;12.80;99.90
14735;DHT22;7458;49.002;8.472;2022-10-31T03:16:09;12.70;99.90
14735;DHT22;7458;49.002;8.472;2022-10-31T03:18:40;12.80;99.90
14735;DHT22;7458;49.002;8.472;2022-10-31T03:21:16;12.70;99.90
14735;DHT22;7458;49.002;8.472;2022-10-31T03:23:49;12.70;99.90
14735;DHT22;7458;49.002;8.472;2022-10-31T03:26:17;12.70;99.90
14735;DHT22;7458;49.002;8.472;2022-10-31T03:31:38;12.60;99.90
14735;DHT22;7458;49.002;8.472;2022-10-31T03:34:12;12.60;99.90
14735;DHT22;7458;49.002;8.472;2022-10-31T03:36:41;12.50;99.90
14735;DHT22;7458;49.002;8.472;2022-10-31T03:39:13;12.60;99.90
14735;DHT22;7458;49.002;8.472;2022-10-31T03:41:47;12.60;99.90
14735;DHT22;7458;49.002;8.472;2022-10-31T03:44:21;12.50;99.90
14735;DHT22;7458;49.002;8.472;2022-10-31T03:46:49;12.50;99.90
14735;DHT22;7458;49.002;8.472;2022-10-31T03:49:15;12.40;99.90
14735;DHT22;7458;49.002;8.472;2022-10-31T03:52:16;12.50;99.90
14735;DHT22;7458;49.002;8.472;2022-10-31T03:55:10;12.50;99.90
14735;DHT22;7458;49.002;8.472;2022-10-31T04:00:23;12.50;99.90
14735;DHT22;7458;49.002;8.472;2022-10-31T04:03:06;12.40;99.90
14735;DHT22;7458;49.002;8.472;2022-10-31T04:05:35;12.40;99.90
14735;DHT22;7458;49.002;8.472;2022-10-31T04:08:06;12.30;99.90
14735;DHT22;7458;49.002;8.472;2022-10-31T04:10:35;12.30;99.90
14735;DHT22;7458;49.002;8.472;2022-10-31T04:13:07;12.30;99.90
14735;DHT22;7458;49.002;8.472;2022-10-31T04:15:36;12.20;99.90
14735;DHT22;7458;49.002;8.472;2022-10-31T04:18:04;12.20;99.90
14735;DHT22;7458;49.002;8.472;2022-10-31T04:20:35;12.30;99.90
14735;DHT22;7458;49.002;8.472;2022-10-31T04:23:04;12.30;99.90
14735;DHT22;7458;49.002;8.472;2022-10-31T04:25:39;12.20;99.90
14735;DHT22;7458;49.002;8.472;2022-10-31T04:28:04;12.20;99.90
14735;DHT22;7458;49.002;8.472;2022-10-31T04:30:30;12.20;99.90
14735;DHT22;7458;49.002;8.472;2022-10-31T04:32:56;12.20;99.90
14735;DHT22;7458;49.002;8.472;2022-10-31T04:35:21;12.20;99.90
14735;DHT22;7458;49.002;8.472;2022-10-31T04:37:47;12.10;99.90
14735;DHT22;7458;49.002;8.472;2022-10-31T04:40:13;12.20;99.90
14735;DHT22;7458;49.002;8.472;2022-10-31T04:42:38;12.20;99.90
14735;DHT22;7458;49.002;8.472;2022-10-31T04:45:05;12.10;99.90
14735;DHT22;7458;49.002;8.472;2022-10-31T04:47:32;12.20;99.90
14735;DHT22;7458;49.002;8.472;2022-10-31T04:49:59;12.10;99.90
14735;DHT22;7458;49.002;8.472;2022-10-31T04:52:25;12.10;99.90
14735;DHT22;7458;49.002;8.472;2022-10-31T04:54:50;12.10;99.90
14735;DHT22;7458;49.002;8.472;2022-10-31T04:57:16;12.10;99.90
14735;DHT22;7458;49.002;8.472;2022-10-31T04:59:42;12.10;99.90
14735;DHT22;7458;49.002;8.472;2022-10-31T05:02:07;12.10;99.90
14735;DHT22;7458;49.002;8.472;2022-10-31T05:04:33;12.10;99.90
14735;DHT22;7458;49.002;8.472;2022-10-31T05:06:59;12.00;99.90
14735;DHT22;7458;49.002;8.472;2022-10-31T05:09:24;12.00;99.90
14735;DHT22;7458;49.002;8.472;2022-10-31T05:11:50;11.90;99.90
14735;DHT22;7458;49.002;8.472;2022-10-31T05:14:16;11.90;99.90
14735;DHT22;7458;49.002;8.472;2022-10-31T05:16:41;11.90;99.90
14735;DHT22;7458;49.002;8.472;2022-10-31T05:19:07;11.90;99.90
14735;DHT22;7458;49.002;8.472;2022-10-31T05:21:33;12.00;99.90
14735;DHT22;7458;49.002;8.472;2022-10-31T05:23:58;12.00;99.90
14735;DHT22;7458;49.002;8.472;2022-10-31T05:26:24;11.90;99.90
14735;DHT22;7458;49.002;8.472;2022-10-31T05:28:50;11.90;99.90
14735;DHT22;7458;49.002;8.472;2022-10-31T05:31:16;11.90;99.90
14735;DHT22;7458;49.002;8.472;2022-10-31T05:33:41;11.90;99.90
14735;DHT22;7458;49.002;8.472;2022-10-31T05:36:07;11.90;99.90
14735;DHT22;7458;49.002;8.472;2022-10-31T05:38:33;11.90;99.90
14735;DHT22;7458;49.002;8.472;2022-10-31T05:40:58;11.90;99.90
14735;DHT22;7458;49.002;8.472;2022-10-31T05:43:28;11.80;99.90
14735;DHT22;7458;49.002;8.472;2022-10-31T05:45:55;11.80;99.90
14735;DHT22;7458;49.002;8.472;2022-10-31T05:48:22;11.80;99.90
14735;DHT22;7458;49.002;8.472;2022-10-31T05:50:48;11.80;99.90
14735;DHT22;7458;49.002;8.472;2022-10-31T05:53:15;11.80;99.90
14735;DHT22;7458;49.002;8.472;2022-10-31T05:55:42;11.70;99.90
14735;DHT22;7458;49.002;8.472;2022-10-31T05:58:11;11.70;99.90
14735;DHT22;7458;49.002;8.472;2022-10-31T06:00:37;11.60;99.90
14735;DHT22;7458;49.002;8.472;2022-10-31T06:03:08;11.60;99.90
14735;DHT22;7458;49.002;8.472;2022-10-31T06:05:34;11.60;99.90
14735;DHT22;7458;49.002;8.472;2022-10-31T06:08:00;11.60;99.90
14735;DHT22;7458;49.002;8.472;2022-10-31T06:10:27;11.50;99.90
14735;DHT22;7458;49.002;8.472;2022-10-31T06:12:53;11.50;99.90
14735;DHT22;7458;49.002;8.472;2022-10-31T06:15:19;11.40;99.90
14735;DHT22;7458;49.002;8.472;2022-10-31T06:17:45;11.50;99.90
14735;DHT22;7458;49.002;8.472;2022-10-31T06:20:11;11.60;99.90
14735;DHT22;7458;49.002;8.472;2022-10-31T06:22:37;11.60;99.90
14735;DHT22;7458;49.002;8.472;2022-10-31T06:25:02;11.60;99.90
14735;DHT22;7458;49.002;8.472;2022-10-31T06:27:28;11.60;99.90
14735;DHT22;7458;49.002;8.472;2022-10-31T06:29:54;11.70;99.90
14735;DHT22;7458;49.002;8.472;2022-10-31T06:32:20;11.70;99.90
14735;DHT22;7458;49.002;8.472;2022-10-31T06:34:46;11.70;99.90
14735;DHT22;7458;49.002;8.472;2022-10-31T06:37:15;11.70;99.90
14735;DHT22;7458;49.002;8.472;2022-10-31T06:39:41;11.70;99.90
14735;DHT22;7458;49.002;8.472;2022-10-31T06:42:06;11.80;99.90
14735;DHT22;7458;49.002;8.472;2022-10-31T06:44:32;11.80;99.90
14735;DHT22;7458;49.002;8.472;2022-10-31T06:46:58;11.90;99.90
14735;DHT22;7458;49.002;8.472;2022-10-31T06:49:24;11.90;99.90
14735;DHT22;7458;49.002;8.472;2022-10-31T06:51:50;11.90;99.90
14735;DHT22;7458;49.002;8.472;2022-10-31T06:54:16;11.90;99.90
14735;DHT22;7458;49.002;8.472;2022-10-31T06:56:42;11.90;99.90
14735;DHT22;7458;49.002;8.472;2022-10-31T06:59:12;11.90;99.90
14735;DHT22;7458;49.002;8.472;2022-10-31T07:01:38;12.00;99.90
14735;DHT22;7458;49.002;8.472;2022-10-31T07:04:03;12.10;99.90
14735;DHT22;7458;49.002;8.472;2022-10-31T07:06:29;12.20;99.90
14735;DHT22;7458;49.002;8.472;2022-10-31T07:08:55;12.20;99.90
14735;DHT22;7458;49.002;8.472;2022-10-31T07:11:21;12.30;99.90
14735;DHT22;7458;49.002;8.472;2022-10-31T07:13:46;12.40;99.90
14735;DHT22;7458;49.002;8.472;2022-10-31T07:16:12;12.40;99.90
14735;DHT22;7458;49.002;8.472;2022-10-31T07:18:39;12.50;99.90
14735;DHT22;7458;49.002;8.472;2022-10-31T07:21:05;12.50;99.90
14735;DHT22;7458;49.002;8.472;2022-10-31T07:23:31;12.60;99.90
14735;DHT22;7458;49.002;8.472;2022-10-31T07:25:58;12.60;99.90
14735;DHT22;7458;49.002;8.472;2022-10-31T07:28:26;12.50;99.90
14735;DHT22;7458;49.002;8.472;2022-10-31T07:30:54;12.50;99.90
14735;DHT22;7458;49.002;8.472;2022-10-31T07:33:21;12.60;99.90
14735;DHT22;7458;49.002;8.472;2022-10-31T07:35:48;12.50;99.90
14735;DHT22;7458;49.002;8.472;2022-10-31T07:38:14;12.50;99.90
14735;DHT22;7458;49.002;8.472;2022-10-31T07:40:41;12.50;99.90
14735;DHT22;7458;49.002;8.472;2022-10-31T07:43:08;12.60;99.90
14735;DHT22;7458;49.002;8.472;2022-10-31T07:45:36;12.60;99.90
14735;DHT22;7458;49.002;8.472;2022-10-31T07:48:02;12.70;99.90
14735;DHT22;7458;49.002;8.472;2022-10-31T07:50:30;12.70;99.90
14735;DHT22;7458;49.002;8.472;2022-10-31T07:55:30;12.80;99.90
14735;DHT22;7458;49.002;8.472;2022-10-31T07:57:57;12.90;99.90
14735;DHT22;7458;49.002;8.472;2022-10-31T08:00:28;13.00;99.90
14735;DHT22;7458;49.002;8.472;2022-10-31T08:05:29;13.20;99.90
14735;DHT22;7458;49.002;8.472;2022-10-31T08:07:56;13.30;99.90
14735;DHT22;7458;49.002;8.472;2022-10-31T08:10:23;13.40;99.90
14735;DHT22;7458;49.002;8.472;2022-10-31T08:13:07;13.50;99.90
14735;DHT22;7458;49.002;8.472;2022-10-31T08:15:34;13.50;99.90
14735;DHT22;7458;49.002;8.472;2022-10-31T08:18:03;13.60;99.90
14735;DHT22;7458;49.002;8.472;2022-10-31T08:20:30;13.70;99.90
14735;DHT22;7458;49.002;8.472;2022-10-31T08:23:00;13.70;99.90
14735;DHT22;7458;49.002;8.472;2022-10-31T08:25:30;13.80;99.90
14735;DHT22;7458;49.002;8.472;2022-10-31T08:27:57;13.90;99.90
14735;DHT22;7458;49.002;8.472;2022-10-31T08:30:27;13.90;99.90
14735;DHT22;7458;49.002;8.472;2022-10-31T08:33:21;14.10;99.90
14735;DHT22;7458;49.002;8.472;2022-10-31T08:35:47;14.20;99.90
14735;DHT22;7458;49.002;8.472;2022-10-31T08:38:13;14.30;99.90
14735;DHT22;7458;49.002;8.472;2022-10-31T08:40:39;14.40;99.90
14735;DHT22;7458;49.002;8.472;2022-10-31T08:43:16;14.50;99.90
14735;DHT22;7458;49.002;8.472;2022-10-31T08:45:43;14.60;99.90
14735;DHT22;7458;49.002;8.472;2022-10-31T08:48:12;14.70;99.90
14735;DHT22;7458;49.002;8.472;2022-10-31T08:50:39;14.80;99.90
14735;DHT22;7458;49.002;8.472;2022-10-31T08:53:10;14.90;99.90
14735;DHT22;7458;49.002;8.472;2022-10-31T08:55:45;15.00;99.90
14735;DHT22;7458;49.002;8.472;2022-10-31T08:58:16;15.10;99.90
14735;DHT22;7458;49.002;8.472;2022-10-31T09:00:45;15.20;99.90
14735;DHT22;7458;49.002;8.472;2022-10-31T09:03:24;15.20;99.90
14735;DHT22;7458;49.002;8.472;2022-10-31T09:05:55;15.40;99.90
14735;DHT22;7458;49.002;8.472;2022-10-31T09:08:22;15.50;99.90
14735;DHT22;7458;49.002;8.472;2022-10-31T09:10:48;15.70;99.90
14735;DHT22;7458;49.002;8.472;2022-10-31T09:13:16;15.90;99.90
14735;DHT22;7458;49.002;8.472;2022-10-31T09:15:47;16.10;99.90
14735;DHT22;7458;49.002;8.472;2022-10-31T09:18:17;16.20;99.90
14735;DHT22;7458;49.002;8.472;2022-10-31T09:20:46;16.40;99.90
14735;DHT22;7458;49.002;8.472;2022-10-31T09:23:15;16.50;99.90
14735;DHT22;7458;49.002;8.472;2022-10-31T09:25:43;16.60;99.90
14735;DHT22;7458;49.002;8.472;2022-10-31T09:28:12;16.80;99.90
14735;DHT22;7458;49.002;8.472;2022-10-31T09:30:39;16.90;99.90
14735;DHT22;7458;49.002;8.472;2022-10-31T09:33:14;17.10;99.90
14735;DHT22;7458;49.002;8.472;2022-10-31T09:35:40;17.20;99.90
14735;DHT22;7458;49.002;8.472;2022-10-31T09:38:15;17.20;99.90
14735;DHT22;7458;49.002;8.472;2022-10-31T09:49:59;17.50;99.90
14735;DHT22;7458;49.002;8.472;2022-10-31T09:52:34;17.60;99.90
14735;DHT22;7458;49.002;8.472;2022-10-31T09:57:39;17.90;99.90
14735;DHT22;7458;49.002;8.472;2022-10-31T10:00:07;17.90;99.90
14735;DHT22;7458;49.002;8.472;2022-10-31T10:03:01;17.90;99.90
14735;DHT22;7458;49.002;8.472;2022-10-31T10:05:36;18.00;99.90
14735;DHT22;7458;49.002;8.472;2022-10-31T10:08:25;18.00;99.90
14735;DHT22;7458;49.002;8.472;2022-10-31T10:23:11;17.60;99.90
14735;DHT22;7458;49.002;8.472;2022-10-31T10:25:53;17.50;99.90
14735;DHT22;7458;49.002;8.472;2022-10-31T10:28:43;17.50;99.90
14735;DHT22;7458;49.002;8.472;2022-10-31T10:31:20;17.50;99.90
14735;DHT22;7458;49.002;8.472;2022-10-31T10:37:07;17.60;99.90
14735;DHT22;7458;49.002;8.472;2022-10-31T10:39:45;17.60;99.90
14735;DHT22;7458;49.002;8.472;2022-10-31T10:42:16;17.70;99.90
14735;DHT22;7458;49.002;8.472;2022-10-31T10:45:17;17.70;99.90
14735;DHT22;7458;49.002;8.472;2022-10-31T10:51:22;17.70;99.90
14735;DHT22;7458;49.002;8.472;2022-10-31T10:59:36;17.80;99.90
14735;DHT22;7458;49.002;8.472;2022-10-31T11:02:08;17.80;99.90
14735;DHT22;7458;49.002;8.472;2022-10-31T11:04:43;17.80;99.90
14735;DHT22;7458;49.002;8.472;2022-10-31T11:07:11;17.80;99.90
14735;DHT22;7458;49.002;8.472;2022-10-31T11:09:38;17.90;99.90
14735;DHT22;7458;49.002;8.472;2022-10-31T11:12:21;17.80;99.90
14735;DHT22;7458;49.002;8.472;2022-10-31T11:14:55;17.80;99.90
14735;DHT22;7458;49.002;8.472;2022-10-31T11:17:38;17.80;99.90
14735;DHT22;7458;49.002;8.472;2022-10-31T11:20:30;17.80;99.90
14735;DHT22;7458;49.002;8.472;2022-10-31T11:23:18;17.90;99.90
14735;DHT22;7458;49.002;8.472;2022-10-31T11:28:32;18.00;99.90
14735;DHT22;7458;49.002;8.472;2022-10-31T11:31:06;18.00;99.90
14735;DHT22;7458;49.002;8.472;2022-10-31T11:34:03;17.90;99.90
14735;DHT22;7458;49.002;8.472;2022-10-31T11:36:38;18.00;99.90
14735;DHT22;7458;49.002;8.472;2022-10-31T11:39:20;18.10;99.90
14735;DHT22;7458;49.002;8.472;2022-10-31T11:41:50;18.10;99.90
14735;DHT22;7458;49.002;8.472;2022-10-31T11:44:23;18.10;99.90
14735;DHT22;7458;49.002;8.472;2022-10-31T11:46:57;18.20;99.90
14735;DHT22;7458;49.002;8.472;2022-10-31T11:49:41;18.30;99.90
14735;DHT22;7458;49.002;8.472;2022-10-31T11:52:14;18.20;99.90
14735;DHT22;7458;49.002;8.472;2022-10-31T11:54:50;18.20;99.90
14735;DHT22;7458;49.002;8.472;2022-10-31T11:57:31;18.30;99.90
14735;DHT22;7458;49.002;8.472;2022-10-31T12:00:02;18.40;99.90
14735;DHT22;7458;49.002;8.472;2022-10-31T12:02:31;18.30;99.90
14735;DHT22;7458;49.002;8.472;2022-10-31T12:05:09;18.30;99.90
14735;DHT22;7458;49.002;8.472;2022-10-31T12:07:43;18.50;99.90
14735;DHT22;7458;49.002;8.472;2022-10-31T12:10:13;18.40;99.90
14735;DHT22;7458;49.002;8.472;2022-10-31T12:15:46;18.50;99.90
14735;DHT22;7458;49.002;8.472;2022-10-31T12:21:37;18.60;99.90
14735;DHT22;7458;49.002;8.472;2022-10-31T12:24:16;18.50;99.90
14735;DHT22;7458;49.002;8.472;2022-10-31T12:42:01;18.70;99.90
14735;DHT22;7458;49.002;8.472;2022-10-31T12:48:14;18.60;99.90
14735;DHT22;7458;49.002;8.472;2022-10-31T12:57:23;18.50;99.90
14735;DHT22;7458;49.002;8.472;2022-10-31T13:00:09;18.50;99.90
14735;DHT22;7458;49.002;8.472;2022-10-31T13:05:39;18.50;99.90
14735;DHT22;7458;49.002;8.472;2022-10-31T13:08:18;18.50;99.90
14735;DHT22;7458;49.002;8.472;2022-10-31T13:11:08;18.60;99.90
14735;DHT22;7458;49.002;8.472;2022-10-31T13:13:42;18.70;99.90
14735;DHT22;7458;49.002;8.472;2022-10-31T13:16:21;18.90;99.90
14735;DHT22;7458;49.002;8.472;2022-10-31T13:18:53;19.00;99.90
14735;DHT22;7458;49.002;8.472;2022-10-31T13:21:30;19.00;99.90
14735;DHT22;7458;49.002;8.472;2022-10-31T13:24:04;19.00;99.90
14735;DHT22;7458;49.002;8.472;2022-10-31T13:26:50;18.90;99.90
14735;DHT22;7458;49.002;8.472;2022-10-31T13:29:33;18.90;99.90
14735;DHT22;7458;49.002;8.472;2022-10-31T13:32:07;18.90;99.90
14735;DHT22;7458;49.002;8.472;2022-10-31T13:34:42;18.90;99.90
14735;DHT22;7458;49.002;8.472;2022-10-31T13:37:37;18.90;99.90
14735;DHT22;7458;49.002;8.472;2022-10-31T13:40:27;18.90;99.90
14735;DHT22;7458;49.002;8.472;2022-10-31T13:46:23;18.90;99.90
14735;DHT22;7458;49.002;8.472;2022-10-31T13:48:57;18.80;99.90
14735;DHT22;7458;49.002;8.472;2022-10-31T13:51:29;18.80;99.90
14735;DHT22;7458;49.002;8.472;2022-10-31T13:54:29;18.70;99.90
14735;DHT22;7458;49.002;8.472;2022-10-31T13:56:58;18.70;99.90
14735;DHT22;7458;49.002;8.472;2022-10-31T13:59:27;18.70;99.90
14735;DHT22;7458;49.002;8.472;2022-10-31T14:02:11;18.60;99.90
14735;DHT22;7458;49.002;8.472;2022-10-31T14:04:51;18.60;99.90
14735;DHT22;7458;49.002;8.472;2022-10-31T14:07:22;18.50;99.90
14735;DHT22;7458;49.002;8.472;2022-10-31T14:12:33;18.40;99.90
14735;DHT22;7458;49.002;8.472;2022-10-31T14:15:19;18.40;99.90
14735;DHT22;7458;49.002;8.472;2022-10-31T14:17:58;18.40;99.90
14735;DHT22;7458;49.002;8.472;2022-10-31T14:20:38;18.40;99.90
14735;DHT22;7458;49.002;8.472;2022-10-31T14:28:56;18.40;99.90
14735;DHT22;7458;49.002;8.472;2022-10-31T14:31:44;18.40;99.90
14735;DHT22;7458;49.002;8.472;2022-10-31T14:34:23;18.50;99.90
14735;DHT22;7458;49.002;8.472;2022-10-31T14:42:48;18.50;99.90
14735;DHT22;7458;49.002;8.472;2022-10-31T14:51:40;18.50;99.90
14735;DHT22;7458;49.002;8.472;2022-10-31T14:54:19;18.60;99.90
14735;DHT22;7458;49.002;8.472;2022-10-31T14:56:58;18.50;99.90
14735;DHT22;7458;49.002;8.472;2022-10-31T14:59:32;18.50;99.90
14735;DHT22;7458;49.002;8.472;2022-10-31T15:02:14;18.60;99.90
14735;DHT22;7458;49.002;8.472;2022-10-31T15:04:45;18.60;99.90
14735;DHT22;7458;49.002;8.472;2022-10-31T15:07:17;18.50;99.90
14735;DHT22;7458;49.002;8.472;2022-10-31T15:09:59;18.40;99.90
14735;DHT22;7458;49.002;8.472;2022-10-31T15:12:32;18.40;99.90
14735;DHT22;7458;49.002;8.472;2022-10-31T15:15:19;18.30;99.90
14735;DHT22;7458;49.002;8.472;2022-10-31T15:17:56;18.20;99.90
14735;DHT22;7458;49.002;8.472;2022-10-31T15:20:36;18.30;99.90
14735;DHT22;7458;49.002;8.472;2022-10-31T15:23:20;18.50;99.90
14735;DHT22;7458;49.002;8.472;2022-10-31T15:25:49;18.40;99.90
14735;DHT22;7458;49.002;8.472;2022-10-31T15:28:23;18.30;99.90
14735;DHT22;7458;49.002;8.472;2022-10-31T15:30:57;18.30;99.90
14735;DHT22;7458;49.002;8.472;2022-10-31T15:33:27;18.20;99.90
14735;DHT22;7458;49.002;8.472;2022-10-31T15:36:00;18.10;99.90
14735;DHT22;7458;49.002;8.472;2022-10-31T15:38:28;18.10;99.90
14735;DHT22;7458;49.002;8.472;2022-10-31T15:41:01;18.00;99.90
14735;DHT22;7458;49.002;8.472;2022-10-31T15:43:44;18.00;99.90
14735;DHT22;7458;49.002;8.472;2022-10-31T15:46:11;17.90;99.90
14735;DHT22;7458;49.002;8.472;2022-10-31T15:48:37;17.90;99.90
14735;DHT22;7458;49.002;8.472;2022-10-31T15:51:05;17.80;99.90
14735;DHT22;7458;49.002;8.472;2022-10-31T15:53:42;17.80;99.90
14735;DHT22;7458;49.002;8.472;2022-10-31T15:56:28;17.70;99.90
14735;DHT22;7458;49.002;8.472;2022-10-31T15:58:57;17.70;99.90
14735;DHT22;7458;49.002;8.472;2022-10-31T16:01:28;17.60;99.90
14735;DHT22;7458;49.002;8.472;2022-10-31T16:06:36;17.70;99.90
14735;DHT22;7458;49.002;8.472;2022-10-31T16:09:03;17.50;99.90
14735;DHT22;7458;49.002;8.472;2022-10-31T16:11:44;17.50;99.90
14735;DHT22;7458;49.002;8.472;2022-10-31T16:14:20;17.50;99.90
14735;DHT22;7458;49.002;8.472;2022-10-31T16:16:54;17.50;99.90
14735;DHT22;7458;49.002;8.472;2022-10-31T16:19:31;17.50;99.90
14735;DHT22;7458;49.002;8.472;2022-10-31T16:22:06;17.40;99.90
14735;DHT22;7458;49.002;8.472;2022-10-31T16:24:47;17.40;99.90
14735;DHT22;7458;49.002;8.472;2022-10-31T16:27:29;17.30;99.90
14735;DHT22;7458;49.002;8.472;2022-10-31T16:29:58;17.30;99.90
14735;DHT22;7458;49.002;8.472;2022-10-31T16:37:42;17.30;99.90
14735;DHT22;7458;49.002;8.472;2022-10-31T16:40:13;17.30;99.90
14735;DHT22;7458;49.002;8.472;2022-10-31T16:42:43;17.30;99.90
14735;DHT22;7458;49.002;8.472;2022-10-31T16:45:19;17.20;99.90
14735;DHT22;7458;49.002;8.472;2022-10-31T16:47:47;17.10;99.90
14735;DHT22;7458;49.002;8.472;2022-10-31T16:50:23;17.10;99.90
14735;DHT22;7458;49.002;8.472;2022-10-31T16:52:51;17.10;99.90
14735;DHT22;7458;49.002;8.472;2022-10-31T16:55:18;17.10;99.90
14735;DHT22;7458;49.002;8.472;2022-10-31T16:57:51;16.90;99.90
14735;DHT22;7458;49.002;8.472;2022-10-31T17:00:21;16.90;99.90
14735;DHT22;7458;49.002;8.472;2022-10-31T17:02:50;16.90;99.90
14735;DHT22;7458;49.002;8.472;2022-10-31T17:05:19;16.90;99.90
14735;DHT22;7458;49.002;8.472;2022-10-31T17:07:46;17.00;99.90
14735;DHT22;7458;49.002;8.472;2022-10-31T17:10:14;17.00;99.90
14735;DHT22;7458;49.002;8.472;2022-10-31T17:12:45;16.90;99.90
14735;DHT22;7458;49.002;8.472;2022-10-31T17:17:41;16.80;99.90
14735;DHT22;7458;49.002;8.472;2022-10-31T17:22:47;16.80;99.90
14735;DHT22;7458;49.002;8.472;2022-10-31T17:25:19;16.70;99.90
14735;DHT22;7458;49.002;8.472;2022-10-31T17:27:50;16.70;99.90
14735;DHT22;7458;49.002;8.472;2022-10-31T17:30:17;16.60;99.90
14735;DHT22;7458;49.002;8.472;2022-10-31T17:32:45;16.60;99.90
14735;DHT22;7458;49.002;8.472;2022-10-31T17:35:12;16.70;99.90
14735;DHT22;7458;49.002;8.472;2022-10-31T17:37:40;16.70;99.90
14735;DHT22;7458;49.002;8.472;2022-10-31T17:40:11;16.70;99.90
14735;DHT22;7458;49.002;8.472;2022-10-31T17:42:39;16.70;99.90
14735;DHT22;7458;49.002;8.472;2022-10-31T17:45:06;16.70;99.90
14735;DHT22;7458;49.002;8.472;2022-10-31T17:47:33;16.60;99.90
14735;DHT22;7458;49.002;8.472;2022-10-31T17:49:59;16.60;99.90
14735;DHT22;7458;49.002;8.472;2022-10-31T17:52:25;16.60;99.90
14735;DHT22;7458;49.002;8.472;2022-10-31T17:54:54;16.50;99.90
14735;DHT22;7458;49.002;8.472;2022-10-31T17:57:20;16.50;99.90
14735;DHT22;7458;49.002;8.472;2022-10-31T17:59:45;16.50;99.90
14735;DHT22;7458;49.002;8.472;2022-10-31T18:02:11;16.50;99.90
14735;DHT22;7458;49.002;8.472;2022-10-31T18:04:37;16.40;99.90
14735;DHT22;7458;49.002;8.472;2022-10-31T18:07:06;16.40;99.90
14735;DHT22;7458;49.002;8.472;2022-10-31T18:09:33;16.50;99.90
14735;DHT22;7458;49.002;8.472;2022-10-31T18:11:59;16.50;99.90
14735;DHT22;7458;49.002;8.472;2022-10-31T18:14:24;16.50;99.90
14735;DHT22;7458;49.002;8.472;2022-10-31T18:16:50;16.50;99.90
14735;DHT22;7458;49.002;8.472;2022-10-31T18:19:16;16.50;99.90
14735;DHT22;7458;49.002;8.472;2022-10-31T18:21:44;16.50;99.90
14735;DHT22;7458;49.002;8.472;2022-10-31T18:24:11;16.40;99.90
14735;DHT22;7458;49.002;8.472;2022-10-31T18:26:37;16.40;99.90
14735;DHT22;7458;49.002;8.472;2022-10-31T18:29:04;16.40;99.90
14735;DHT22;7458;49.002;8.472;2022-10-31T18:31:29;16.50;99.90
14735;DHT22;7458;49.002;8.472;2022-10-31T18:33:56;16.40;99.90
14735;DHT22;7458;49.002;8.472;2022-10-31T18:36:22;16.30;99.90
14735;DHT22;7458;49.002;8.472;2022-10-31T18:38:49;16.30;99.90
14735;DHT22;7458;49.002;8.472;2022-10-31T18:41:15;16.20;99.90
14735;DHT22;7458;49.002;8.472;2022-10-31T18:43:41;16.20;99.90
14735;DHT22;7458;49.002;8.472;2022-10-31T18:46:10;16.20;99.90